sensor_id;sensor_type;location;lat;lon;timestamp;pressure;altitude;pressure_sealevel;temperature;humidity
18755;BME280;35061;47.664;9.166;2022-12-18T00:01:30;102598.39;;;-2.52;81.11
18755;BME280;35061;47.664;9.166;2022-12-18T00:04:03;102596.49;;;-2.48;81.14
18755;BME280;35061;47.664;9.166;2022-12-18T00:06:32;102603.03;;;-2.44;81.31
18755;BME280;35061;47.664;9.166;2022-12-18T00:09:02;102606.77;;;-2.40;81.08
18755;BME280;35061;47.664;9.166;2022-12-18T00:11:30;102609.12;;;-2.42;80.54
18755;BME280;35061;47.664;9.166;2022-12-18T00:13:59;102620.23;;;-2.45;80.61
18755;BME280;35061;47.664;9.166;2022-12-18T00:16:28;102612.98;;;-2.46;80.87
18755;BME280;35061;47.664;9.166;2022-12-18T00:18:57;102618.70;;;-2.43;80.74
18755;BME280;35061;47.664;9.166;2022-12-18T00:21:26;102612.35;;;-2.40;81.31
18755;BME280;35061;47.664;9.166;2022-12-18T00:23:55;102606.01;;;-2.36;80.87
18755;BME280;35061;47.664;9.166;2022-12-18T00:26:25;102615.52;;;-2.41;80.84
18755;BME280;35061;47.664;9.166;2022-12-18T00:28:54;102620.79;;;-2.40;81.50
18755;BME280;35061;47.664;9.166;2022-12-18T00:31:24;102615.52;;;-2.41;80.70
18755;BME280;35061;47.664;9.166;2022-12-18T00:33:56;102613.80;;;-2.46;80.96
18755;BME280;35061;47.664;9.166;2022-12-18T00:36:29;102629.09;;;-2.43;81.47
18755;BME280;35061;47.664;9.166;2022-12-18T00:38:58;102634.63;;;-2.47;81.42
18755;BME280;35061;47.664;9.166;2022-12-18T00:41:27;102635.44;;;-2.46;81.58
18755;BME280;35061;47.664;9.166;2022-12-18T00:44:15;102636.98;;;-2.49;81.16
18755;BME280;35061;47.664;9.166;2022-12-18T00:46:44;102640.05;;;-2.54;81.36
18755;BME280;35061;47.664;9.166;2022-12-18T00:49:12;102639.10;;;-2.58;81.52
18755;BME280;35061;47.664;9.166;2022-12-18T00:51:40;102637.47;;;-2.59;81.78
18755;BME280;35061;47.664;9.166;2022-12-18T00:54:10;102636.13;;;-2.65;81.70
18755;BME280;35061;47.664;9.166;2022-12-18T00:56:39;102623.70;;;-2.64;81.83
18755;BME280;35061;47.664;9.166;2022-12-18T00:59:18;102626.02;;;-2.67;81.83
18755;BME280;35061;47.664;9.166;2022-12-18T01:01:47;102631.45;;;-2.74;81.87
18755;BME280;35061;47.664;9.166;2022-12-18T01:04:15;102637.44;;;-2.75;81.88
18755;BME280;35061;47.664;9.166;2022-12-18T01:06:43;102631.26;;;-2.81;81.90
18755;BME280;35061;47.664;9.166;2022-12-18T01:09:11;102631.02;;;-2.88;82.06
18755;BME280;35061;47.664;9.166;2022-12-18T01:11:39;102649.01;;;-2.89;82.73
18755;BME280;35061;47.664;9.166;2022-12-18T01:14:07;102666.24;;;-2.91;82.31
18755;BME280;35061;47.664;9.166;2022-12-18T01:16:34;102665.39;;;-2.91;82.54
18755;BME280;35061;47.664;9.166;2022-12-18T01:19:02;102662.94;;;-2.93;82.39
18755;BME280;35061;47.664;9.166;2022-12-18T01:21:30;102662.71;;;-2.88;82.75
18755;BME280;35061;47.664;9.166;2022-12-18T01:23:58;102647.18;;;-2.85;82.64
18755;BME280;35061;47.664;9.166;2022-12-18T01:26:26;102656.04;;;-2.83;82.49
18755;BME280;35061;47.664;9.166;2022-12-18T01:28:57;102664.28;;;-2.74;82.74
18755;BME280;35061;47.664;9.166;2022-12-18T01:31:30;102659.64;;;-2.70;82.52
18755;BME280;35061;47.664;9.166;2022-12-18T01:34:00;102669.55;;;-2.73;82.39
18755;BME280;35061;47.664;9.166;2022-12-18T01:36:34;102674.71;;;-2.75;81.98
18755;BME280;35061;47.664;9.166;2022-12-18T01:39:09;102684.98;;;-2.79;82.33
18755;BME280;35061;47.664;9.166;2022-12-18T01:41:38;102677.40;;;-2.78;82.48
18755;BME280;35061;47.664;9.166;2022-12-18T01:47:47;102679.16;;;-2.74;82.77
18755;BME280;35061;47.664;9.166;2022-12-18T01:50:20;102678.28;;;-2.62;82.56
18755;BME280;35061;47.664;9.166;2022-12-18T01:55:26;102677.88;;;-2.48;82.23
18755;BME280;35061;47.664;9.166;2022-12-18T01:57:58;102676.02;;;-2.44;82.36
18755;BME280;35061;47.664;9.166;2022-12-18T02:00:28;102671.21;;;-2.43;81.39
18755;BME280;35061;47.664;9.166;2022-12-18T02:02:56;102678.84;;;-2.44;81.65
18755;BME280;35061;47.664;9.166;2022-12-18T02:13:53;102689.20;;;-2.44;81.46
18755;BME280;35061;47.664;9.166;2022-12-18T02:16:33;102684.42;;;-2.44;81.63
18755;BME280;35061;47.664;9.166;2022-12-18T02:19:27;102674.84;;;-2.43;81.34
18755;BME280;35061;47.664;9.166;2022-12-18T02:25:27;102677.07;;;-2.48;81.65
18755;BME280;35061;47.664;9.166;2022-12-18T02:28:04;102675.79;;;-2.51;81.74
18755;BME280;35061;47.664;9.166;2022-12-18T02:30:35;102666.54;;;-2.52;81.82
18755;BME280;35061;47.664;9.166;2022-12-18T02:33:06;102669.35;;;-2.52;81.89
18755;BME280;35061;47.664;9.166;2022-12-18T02:35:36;102677.88;;;-2.48;82.08
18755;BME280;35061;47.664;9.166;2022-12-18T02:38:06;102675.79;;;-2.51;82.06
18755;BME280;35061;47.664;9.166;2022-12-18T02:40:34;102681.41;;;-2.51;82.14
18755;BME280;35061;47.664;9.166;2022-12-18T02:43:12;102675.89;;;-2.47;82.33
18755;BME280;35061;47.664;9.166;2022-12-18T02:46:22;102675.63;;;-2.42;82.03
18755;BME280;35061;47.664;9.166;2022-12-18T02:48:55;102681.25;;;-2.42;81.47
18755;BME280;35061;47.664;9.166;2022-12-18T02:51:37;102672.03;;;-2.43;81.88
18755;BME280;35061;47.664;9.166;2022-12-18T02:54:24;102681.61;;;-2.44;81.89
18755;BME280;35061;47.664;9.166;2022-12-18T02:56:57;102693.32;;;-2.42;81.81
18755;BME280;35061;47.664;9.166;2022-12-18T02:59:32;102685.66;;;-2.41;81.96
18755;BME280;35061;47.664;9.166;2022-12-18T03:02:09;102690.97;;;-2.40;81.92
18755;BME280;35061;47.664;9.166;2022-12-18T03:04:44;102694.20;;;-2.37;81.93
18755;BME280;35061;47.664;9.166;2022-12-18T03:07:20;102694.20;;;-2.37;81.83
18755;BME280;35061;47.664;9.166;2022-12-18T03:09:50;102700.91;;;-2.42;81.66
18755;BME280;35061;47.664;9.166;2022-12-18T03:12:24;102701.49;;;-2.49;82.04
18755;BME280;35061;47.664;9.166;2022-12-18T03:15:04;102704.77;;;-2.47;82.32
18755;BME280;35061;47.664;9.166;2022-12-18T03:17:46;102699.99;;;-2.46;81.59
18755;BME280;35061;47.664;9.166;2022-12-18T03:20:19;102698.91;;;-2.42;81.96
18755;BME280;35061;47.664;9.166;2022-12-18T03:22:55;102688.38;;;-2.45;81.39
18755;BME280;35061;47.664;9.166;2022-12-18T03:25:25;102691.55;;;-2.46;81.78
18755;BME280;35061;47.664;9.166;2022-12-18T03:27:56;102700.32;;;-2.48;81.41
18755;BME280;35061;47.664;9.166;2022-12-18T03:30:28;102692.73;;;-2.47;81.83
18755;BME280;35061;47.664;9.166;2022-12-18T03:33:21;102696.46;;;-2.43;82.16
18755;BME280;35061;47.664;9.166;2022-12-18T03:35:51;102689.66;;;-2.42;82.06
18755;BME280;35061;47.664;9.166;2022-12-18T03:38:19;102692.86;;;-2.44;81.78
18755;BME280;35061;47.664;9.166;2022-12-18T03:40:55;102691.09;;;-2.48;81.87
18755;BME280;35061;47.664;9.166;2022-12-18T03:46:33;102695.74;;;-2.40;82.40
18755;BME280;35061;47.664;9.166;2022-12-18T03:52:14;102705.45;;;-2.37;81.96
18755;BME280;35061;47.664;9.166;2022-12-18T03:54:45;102701.01;;;-2.39;81.93
18755;BME280;35061;47.664;9.166;2022-12-18T03:57:17;102708.69;;;-2.35;82.32
18755;BME280;35061;47.664;9.166;2022-12-18T03:59:47;102715.03;;;-2.39;82.04
18755;BME280;35061;47.664;9.166;2022-12-18T04:02:17;102710.26;;;-2.38;82.10
18755;BME280;35061;47.664;9.166;2022-12-18T04:04:46;102705.09;;;-2.36;82.25
18755;BME280;35061;47.664;9.166;2022-12-18T04:07:16;102723.47;;;-2.39;82.00
18755;BME280;35061;47.664;9.166;2022-12-18T04:09:45;102720.66;;;-2.39;81.99
18755;BME280;35061;47.664;9.166;2022-12-18T04:12:14;102711.41;;;-2.39;81.99
18755;BME280;35061;47.664;9.166;2022-12-18T04:14:42;102717.48;;;-2.37;82.11
18755;BME280;35061;47.664;9.166;2022-12-18T04:17:09;102734.59;;;-2.42;81.50
18755;BME280;35061;47.664;9.166;2022-12-18T04:19:38;102732.95;;;-2.43;81.58
18755;BME280;35061;47.664;9.166;2022-12-18T04:22:06;102735.54;;;-2.50;81.52
18755;BME280;35061;47.664;9.166;2022-12-18T04:24:35;102730.30;;;-2.52;82.10
18755;BME280;35061;47.664;9.166;2022-12-18T04:27:03;102735.54;;;-2.50;82.14
18755;BME280;35061;47.664;9.166;2022-12-18T04:29:31;102725.01;;;-2.54;82.30
18755;BME280;35061;47.664;9.166;2022-12-18T04:31:59;102731.19;;;-2.48;82.17
18755;BME280;35061;47.664;9.166;2022-12-18T04:34:28;102728.87;;;-2.46;82.37
18755;BME280;35061;47.664;9.166;2022-12-18T04:36:56;102731.19;;;-2.48;81.80
18755;BME280;35061;47.664;9.166;2022-12-18T04:39:24;102731.58;;;-2.49;81.74
18755;BME280;35061;47.664;9.166;2022-12-18T04:41:52;102742.89;;;-2.46;82.00
18755;BME280;35061;47.664;9.166;2022-12-18T04:44:19;102745.67;;;-2.46;81.34
18755;BME280;35061;47.664;9.166;2022-12-18T04:46:47;102741.13;;;-2.50;81.45
18755;BME280;35061;47.664;9.166;2022-12-18T04:49:15;102738.80;;;-2.48;81.76
18755;BME280;35061;47.664;9.166;2022-12-18T04:51:42;102739.98;;;-2.49;81.45
18755;BME280;35061;47.664;9.166;2022-12-18T04:54:10;102744.33;;;-2.52;81.47
18755;BME280;35061;47.664;9.166;2022-12-18T04:56:38;102741.06;;;-2.54;81.54
18755;BME280;35061;47.664;9.166;2022-12-18T04:59:06;102738.15;;;-2.58;81.32
18755;BME280;35061;47.664;9.166;2022-12-18T05:01:33;102735.66;;;-2.59;81.28
18755;BME280;35061;47.664;9.166;2022-12-18T05:04:02;102744.70;;;-2.66;81.05
18755;BME280;35061;47.664;9.166;2022-12-18T05:06:30;102755.81;;;-2.70;81.39
18755;BME280;35061;47.664;9.166;2022-12-18T05:08:58;102753.13;;;-2.66;81.78
18755;BME280;35061;47.664;9.166;2022-12-18T05:11:25;102753.23;;;-2.62;81.95
18755;BME280;35061;47.664;9.166;2022-12-18T05:13:53;102753.42;;;-2.55;81.87
18755;BME280;35061;47.664;9.166;2022-12-18T05:16:21;102757.77;;;-2.58;81.61
18755;BME280;35061;47.664;9.166;2022-12-18T05:18:49;102761.20;;;-2.64;81.95
18755;BME280;35061;47.664;9.166;2022-12-18T05:21:16;102756.34;;;-2.52;82.15
18755;BME280;35061;47.664;9.166;2022-12-18T05:23:44;102753.65;;;-2.48;81.94
18755;BME280;35061;47.664;9.166;2022-12-18T05:26:15;102749.20;;;-2.49;81.76
18755;BME280;35061;47.664;9.166;2022-12-18T05:28:44;102754.83;;;-2.49;81.89
18755;BME280;35061;47.664;9.166;2022-12-18T05:31:13;102765.95;;;-2.53;81.95
18755;BME280;35061;47.664;9.166;2022-12-18T05:33:41;102765.95;;;-2.53;82.20
18755;BME280;35061;47.664;9.166;2022-12-18T05:36:09;102767.22;;;-2.50;82.32
18755;BME280;35061;47.664;9.166;2022-12-18T05:38:39;102768.83;;;-2.36;82.60
18755;BME280;35061;47.664;9.166;2022-12-18T05:41:07;102766.34;;;-2.26;82.10
18755;BME280;35061;47.664;9.166;2022-12-18T05:43:36;102778.47;;;-2.21;82.20
18755;BME280;35061;47.664;9.166;2022-12-18T05:46:12;102776.97;;;-2.19;82.04
18755;BME280;35061;47.664;9.166;2022-12-18T05:48:41;102780.95;;;-2.20;82.01
18755;BME280;35061;47.664;9.166;2022-12-18T05:51:12;102779.88;;;-2.15;82.44
18755;BME280;35061;47.664;9.166;2022-12-18T05:53:40;102776.80;;;-2.10;82.14
18755;BME280;35061;47.664;9.166;2022-12-18T05:56:15;102772.59;;;-2.04;82.16
18755;BME280;35061;47.664;9.166;2022-12-18T05:58:44;102781.12;;;-2.00;82.03
18755;BME280;35061;47.664;9.166;2022-12-18T06:03:41;102778.77;;;-1.98;81.23
18755;BME280;35061;47.664;9.166;2022-12-18T06:06:18;102771.18;;;-2.10;81.54
18755;BME280;35061;47.664;9.166;2022-12-18T06:08:46;102772.72;;;-2.13;81.67
18755;BME280;35061;47.664;9.166;2022-12-18T06:11:17;102775.07;;;-2.15;81.75
18755;BME280;35061;47.664;9.166;2022-12-18T06:13:45;102769.45;;;-2.15;82.16
18755;BME280;35061;47.664;9.166;2022-12-18T06:16:13;102772.13;;;-2.06;82.37
18755;BME280;35061;47.664;9.166;2022-12-18T06:18:41;102770.55;;;-2.03;81.98
18755;BME280;35061;47.664;9.166;2022-12-18T06:21:09;102774.32;;;-1.99;82.29
18755;BME280;35061;47.664;9.166;2022-12-18T06:23:37;102766.70;;;-1.99;81.57
18755;BME280;35061;47.664;9.166;2022-12-18T06:26:07;102765.42;;;-2.01;81.83
18755;BME280;35061;47.664;9.166;2022-12-18T06:28:35;102773.92;;;-1.98;81.99
18755;BME280;35061;47.664;9.166;2022-12-18T06:31:04;102776.73;;;-1.98;81.86
18755;BME280;35061;47.664;9.166;2022-12-18T06:33:32;102791.26;;;-1.95;81.93
18755;BME280;35061;47.664;9.166;2022-12-18T06:36:14;102788.54;;;-1.92;82.16
18755;BME280;35061;47.664;9.166;2022-12-18T06:38:43;102784.65;;;-1.87;81.80
18755;BME280;35061;47.664;9.166;2022-12-18T06:41:17;102784.29;;;-1.86;81.82
18755;BME280;35061;47.664;9.166;2022-12-18T06:43:45;102792.63;;;-1.89;81.88
18755;BME280;35061;47.664;9.166;2022-12-18T06:46:13;102797.73;;;-1.79;82.05
18755;BME280;35061;47.664;9.166;2022-12-18T06:48:41;102800.19;;;-1.77;81.74
18755;BME280;35061;47.664;9.166;2022-12-18T06:51:09;102803.45;;;-1.75;81.57
18755;BME280;35061;47.664;9.166;2022-12-18T06:53:37;102809.90;;;-1.75;81.22
18755;BME280;35061;47.664;9.166;2022-12-18T06:56:07;102813.79;;;-1.79;81.27
18755;BME280;35061;47.664;9.166;2022-12-18T06:58:37;102806.89;;;-1.82;81.24
18755;BME280;35061;47.664;9.166;2022-12-18T07:01:08;102820.95;;;-1.82;81.27
18755;BME280;35061;47.664;9.166;2022-12-18T07:03:38;102819.74;;;-1.81;81.61
18755;BME280;35061;47.664;9.166;2022-12-18T07:06:19;102820.72;;;-1.89;81.07
18755;BME280;35061;47.664;9.166;2022-12-18T07:08:48;102825.27;;;-1.85;81.89
18755;BME280;35061;47.664;9.166;2022-12-18T07:11:18;102825.10;;;-1.76;81.56
18755;BME280;35061;47.664;9.166;2022-12-18T07:13:46;102829.62;;;-1.87;81.00
18755;BME280;35061;47.664;9.166;2022-12-18T07:16:16;102829.41;;;-1.94;81.33
18755;BME280;35061;47.664;9.166;2022-12-18T07:18:51;102842.89;;;-2.00;81.93
18755;BME280;35061;47.664;9.166;2022-12-18T07:21:19;102849.92;;;-2.06;82.00
18755;BME280;35061;47.664;9.166;2022-12-18T07:23:47;102845.84;;;-2.09;82.03
18755;BME280;35061;47.664;9.166;2022-12-18T07:26:18;102851.82;;;-2.11;81.91
18755;BME280;35061;47.664;9.166;2022-12-18T07:28:46;102861.66;;;-2.17;81.97
18755;BME280;35061;47.664;9.166;2022-12-18T07:31:20;102852.44;;;-2.17;82.03
18755;BME280;35061;47.664;9.166;2022-12-18T07:33:50;102856.30;;;-2.22;82.01
18755;BME280;35061;47.664;9.166;2022-12-18T07:36:18;102859.44;;;-2.23;82.25
18755;BME280;35061;47.664;9.166;2022-12-18T07:38:47;102870.33;;;-2.22;82.33
18755;BME280;35061;47.664;9.166;2022-12-18T07:41:16;102870.23;;;-2.26;82.45
18755;BME280;35061;47.664;9.166;2022-12-18T07:43:44;102875.46;;;-2.24;82.58
18755;BME280;35061;47.664;9.166;2022-12-18T07:46:12;102877.36;;;-2.28;82.45
18755;BME280;35061;47.664;9.166;2022-12-18T07:48:44;102876.64;;;-2.25;82.66
18755;BME280;35061;47.664;9.166;2022-12-18T07:51:16;102868.92;;;-2.28;82.58
18755;BME280;35061;47.664;9.166;2022-12-18T07:53:44;102863.66;;;-2.30;82.65
18755;BME280;35061;47.664;9.166;2022-12-18T07:56:16;102866.83;;;-2.31;82.72
18755;BME280;35061;47.664;9.166;2022-12-18T07:58:53;102864.02;;;-2.31;82.78
18755;BME280;35061;47.664;9.166;2022-12-18T08:01:21;102869.77;;;-2.28;82.84
18755;BME280;35061;47.664;9.166;2022-12-18T08:03:49;102867.02;;;-2.24;82.93
18755;BME280;35061;47.664;9.166;2022-12-18T08:06:18;102865.88;;;-2.23;82.98
18755;BME280;35061;47.664;9.166;2022-12-18T08:08:53;102867.61;;;-2.18;83.08
18755;BME280;35061;47.664;9.166;2022-12-18T08:11:23;102877.59;;;-2.21;83.24
18755;BME280;35061;47.664;9.166;2022-12-18T08:13:51;102882.49;;;-2.18;83.34
18755;BME280;35061;47.664;9.166;2022-12-18T08:16:21;102885.40;;;-2.14;83.34
18755;BME280;35061;47.664;9.166;2022-12-18T08:18:52;102881.77;;;-2.15;83.20
18755;BME280;35061;47.664;9.166;2022-12-18T08:21:23;102880.13;;;-2.16;83.17
18755;BME280;35061;47.664;9.166;2022-12-18T08:23:52;102888.31;;;-2.11;83.39
18755;BME280;35061;47.664;9.166;2022-12-18T08:26:21;102879.41;;;-2.13;83.20
18755;BME280;35061;47.664;9.166;2022-12-18T08:28:50;102884.59;;;-2.15;83.21
18755;BME280;35061;47.664;9.166;2022-12-18T08:31:18;102884.35;;;-2.22;83.81
18755;BME280;35061;47.664;9.166;2022-12-18T08:33:51;102886.45;;;-2.19;83.46
18755;BME280;35061;47.664;9.166;2022-12-18T08:36:21;102885.30;;;-2.18;83.74
18755;BME280;35061;47.664;9.166;2022-12-18T08:38:50;102885.63;;;-2.19;83.31
18755;BME280;35061;47.664;9.166;2022-12-18T08:41:18;102886.45;;;-2.19;83.53
18755;BME280;35061;47.664;9.166;2022-12-18T08:43:46;102886.12;;;-2.17;83.78
18755;BME280;35061;47.664;9.166;2022-12-18T08:46:38;102886.88;;;-2.04;83.78
18755;BME280;35061;47.664;9.166;2022-12-18T08:49:07;102881.61;;;-1.93;83.52
18755;BME280;35061;47.664;9.166;2022-12-18T08:51:35;102892.23;;;-1.87;83.22
18755;BME280;35061;47.664;9.166;2022-12-18T08:54:04;102891.62;;;-1.80;83.45
18755;BME280;35061;47.664;9.166;2022-12-18T08:56:32;102896.62;;;-1.73;83.35
18755;BME280;35061;47.664;9.166;2022-12-18T08:59:00;102892.62;;;-1.72;83.57
18755;BME280;35061;47.664;9.166;2022-12-18T09:01:28;102892.50;;;-1.35;84.67
18755;BME280;35061;47.664;9.166;2022-12-18T09:03:57;102887.95;;;-1.39;82.65
18755;BME280;35061;47.664;9.166;2022-12-18T09:06:25;102894.30;;;-1.43;82.92
18755;BME280;35061;47.664;9.166;2022-12-18T09:08:53;102899.04;;;-1.31;83.24
18755;BME280;35061;47.664;9.166;2022-12-18T09:11:24;102894.06;;;-1.21;83.28
18755;BME280;35061;47.664;9.166;2022-12-18T09:13:52;102885.37;;;-1.16;82.64
18755;BME280;35061;47.664;9.166;2022-12-18T09:16:22;102879.45;;;-1.11;82.77
18755;BME280;35061;47.664;9.166;2022-12-18T09:18:57;102878.47;;;-1.03;82.61
18755;BME280;35061;47.664;9.166;2022-12-18T09:21:34;102889.20;;;-0.92;82.74
18755;BME280;35061;47.664;9.166;2022-12-18T09:24:03;102878.17;;;-0.81;82.14
18755;BME280;35061;47.664;9.166;2022-12-18T09:26:34;102875.46;;;-0.78;82.10
18755;BME280;35061;47.664;9.166;2022-12-18T09:29:02;102874.74;;;-0.75;81.82
18755;BME280;35061;47.664;9.166;2022-12-18T09:31:31;102876.41;;;-0.74;81.93
18755;BME280;35061;47.664;9.166;2022-12-18T09:33:59;102871.93;;;-0.75;81.63
18755;BME280;35061;47.664;9.166;2022-12-18T09:36:27;102873.50;;;-0.77;81.79
18755;BME280;35061;47.664;9.166;2022-12-18T09:38:54;102868.20;;;-0.79;81.63
18755;BME280;35061;47.664;9.166;2022-12-18T09:44:02;102879.74;;;-0.84;81.03
18755;BME280;35061;47.664;9.166;2022-12-18T09:46:44;102881.28;;;-0.87;81.07
18755;BME280;35061;47.664;9.166;2022-12-18T09:49:16;102885.30;;;-0.88;81.14
18755;BME280;35061;47.664;9.166;2022-12-18T09:52:50;102878.73;;;-0.92;81.11
18755;BME280;35061;47.664;9.166;2022-12-18T09:55:05;102874.48;;;-0.86;80.54
18755;BME280;35061;47.664;9.166;2022-12-18T09:57:43;102868.76;;;-0.89;80.79
18755;BME280;35061;47.664;9.166;2022-12-18T10:00:19;102877.75;;;-0.83;80.97
18755;BME280;35061;47.664;9.166;2022-12-18T10:02:47;102872.22;;;-0.80;80.73
18755;BME280;35061;47.664;9.166;2022-12-18T10:05:20;102873.50;;;-0.77;80.84
18755;BME280;35061;47.664;9.166;2022-12-18T10:08:22;102880.76;;;-0.76;80.87
18755;BME280;35061;47.664;9.166;2022-12-18T10:10:53;102877.20;;;-0.73;80.89
18755;BME280;35061;47.664;9.166;2022-12-18T10:13:47;102875.55;;;-0.74;80.59
18755;BME280;35061;47.664;9.166;2022-12-18T10:16:22;102868.85;;;-0.69;80.54
18755;BME280;35061;47.664;9.166;2022-12-18T10:19:24;102871.30;;;-0.68;80.41
18755;BME280;35061;47.664;9.166;2022-12-18T10:27:32;102883.54;;;-0.60;80.12
18755;BME280;35061;47.664;9.166;2022-12-18T10:30:01;102880.30;;;-0.62;80.41
18755;BME280;35061;47.664;9.166;2022-12-18T10:32:32;102878.17;;;-0.65;80.32
18755;BME280;35061;47.664;9.166;2022-12-18T10:35:00;102871.66;;;-0.69;80.15
18755;BME280;35061;47.664;9.166;2022-12-18T10:37:29;102882.46;;;-0.72;79.99
18755;BME280;35061;47.664;9.166;2022-12-18T10:40:15;102878.47;;;-0.71;80.12
18755;BME280;35061;47.664;9.166;2022-12-18T10:43:12;102872.84;;;-0.71;80.22
18755;BME280;35061;47.664;9.166;2022-12-18T10:45:41;102878.92;;;-0.68;80.01
18755;BME280;35061;47.664;9.166;2022-12-18T10:48:19;102887.88;;;-0.63;80.16
18755;BME280;35061;47.664;9.166;2022-12-18T10:50:50;102892.34;;;-0.62;79.85
18755;BME280;35061;47.664;9.166;2022-12-18T10:53:40;102895.54;;;-0.63;79.78
18755;BME280;35061;47.664;9.166;2022-12-18T10:56:10;102897.63;;;-0.60;79.76
18755;BME280;35061;47.664;9.166;2022-12-18T10:58:38;102890.27;;;-0.65;78.26
18755;BME280;35061;47.664;9.166;2022-12-18T11:01:14;102890.63;;;-0.66;78.72
18755;BME280;35061;47.664;9.166;2022-12-18T11:03:45;102883.80;;;-0.65;79.62
18755;BME280;35061;47.664;9.166;2022-12-18T11:06:16;102878.66;;;-0.63;78.83
18755;BME280;35061;47.664;9.166;2022-12-18T11:09:03;102868.20;;;-0.63;79.45
18755;BME280;35061;47.664;9.166;2022-12-18T11:11:38;102878.27;;;-0.62;79.50
18755;BME280;35061;47.664;9.166;2022-12-18T11:14:26;102886.61;;;-0.65;79.27
18755;BME280;35061;47.664;9.166;2022-12-18T11:16:56;102883.11;;;-0.62;79.46
18755;BME280;35061;47.664;9.166;2022-12-18T11:19:45;102876.54;;;-0.66;78.96
18755;BME280;35061;47.664;9.166;2022-12-18T11:22:39;102880.82;;;-0.73;77.95
18755;BME280;35061;47.664;9.166;2022-12-18T11:28:04;102858.85;;;-0.67;79.09
18755;BME280;35061;47.664;9.166;2022-12-18T11:30:37;102865.75;;;-0.64;79.00
18755;BME280;35061;47.664;9.166;2022-12-18T11:38:13;102856.30;;;-0.72;78.78
18755;BME280;35061;47.664;9.166;2022-12-18T11:40:47;102859.50;;;-0.74;78.87
18755;BME280;35061;47.664;9.166;2022-12-18T11:43:26;102846.32;;;-0.69;78.91
18755;BME280;35061;47.664;9.166;2022-12-18T11:46:02;102852.41;;;-0.67;79.28
18755;BME280;35061;47.664;9.166;2022-12-18T11:51:14;102846.23;;;-0.57;79.40
18755;BME280;35061;47.664;9.166;2022-12-18T11:53:45;102846.59;;;-0.59;78.67
18755;BME280;35061;47.664;9.166;2022-12-18T12:05:20;102832.75;;;-0.48;78.31
18755;BME280;35061;47.664;9.166;2022-12-18T12:24:53;102819.97;;;-0.45;78.40
18755;BME280;35061;47.664;9.166;2022-12-18T12:30:36;102830.76;;;-0.47;78.38
18755;BME280;35061;47.664;9.166;2022-12-18T12:36:11;102824.05;;;-0.59;78.20
18755;BME280;35061;47.664;9.166;2022-12-18T12:38:41;102813.98;;;-0.60;78.45
18755;BME280;35061;47.664;9.166;2022-12-18T12:41:19;102810.19;;;-0.67;78.17
18755;BME280;35061;47.664;9.166;2022-12-18T12:44:12;102797.11;;;-0.76;78.21
18755;BME280;35061;47.664;9.166;2022-12-18T12:46:42;102793.88;;;-0.78;78.43
18755;BME280;35061;47.664;9.166;2022-12-18T12:49:18;102787.43;;;-0.78;78.73
18755;BME280;35061;47.664;9.166;2022-12-18T12:52:06;102785.80;;;-0.79;78.53
18755;BME280;35061;47.664;9.166;2022-12-18T12:54:35;102786.25;;;-0.77;78.85
18755;BME280;35061;47.664;9.166;2022-12-18T13:05:24;102793.74;;;-0.65;79.00
18755;BME280;35061;47.664;9.166;2022-12-18T13:08:03;102797.08;;;-0.60;79.08
18755;BME280;35061;47.664;9.166;2022-12-18T13:10:42;102793.38;;;-0.64;78.98
18755;BME280;35061;47.664;9.166;2022-12-18T13:13:12;102794.20;;;-0.63;78.71
18755;BME280;35061;47.664;9.166;2022-12-18T13:16:05;102800.48;;;-0.70;78.60
18755;BME280;35061;47.664;9.166;2022-12-18T13:18:34;102787.95;;;-0.73;78.68
18755;BME280;35061;47.664;9.166;2022-12-18T13:21:12;102781.88;;;-0.75;78.68
18755;BME280;35061;47.664;9.166;2022-12-18T13:23:47;102790.08;;;-0.86;78.69
18755;BME280;35061;47.664;9.166;2022-12-18T13:28:54;102789.20;;;-0.90;79.08
18755;BME280;35061;47.664;9.166;2022-12-18T13:34:17;102800.34;;;-0.93;79.20
18755;BME280;35061;47.664;9.166;2022-12-18T13:36:56;102796.16;;;-1.00;79.52
18755;BME280;35061;47.664;9.166;2022-12-18T13:39:33;102806.89;;;-1.05;79.49
18755;BME280;35061;47.664;9.166;2022-12-18T13:44:38;102809.60;;;-1.09;79.40
18755;BME280;35061;47.664;9.166;2022-12-18T13:47:36;102804.70;;;-1.12;79.60
18755;BME280;35061;47.664;9.166;2022-12-18T13:50:24;102809.05;;;-1.15;79.93
18755;BME280;35061;47.664;9.166;2022-12-18T13:53:00;102806.07;;;-1.22;79.81
18755;BME280;35061;47.664;9.166;2022-12-18T13:55:30;102795.09;;;-1.27;80.01
18755;BME280;35061;47.664;9.166;2022-12-18T13:58:05;102798.19;;;-1.32;80.35
18755;BME280;35061;47.664;9.166;2022-12-18T14:00:33;102807.05;;;-1.30;80.46
18755;BME280;35061;47.664;9.166;2022-12-18T14:03:01;102806.23;;;-1.31;80.28
18755;BME280;35061;47.664;9.166;2022-12-18T14:05:32;102802.63;;;-1.31;80.24
18755;BME280;35061;47.664;9.166;2022-12-18T14:08:04;102795.97;;;-1.39;80.96
18755;BME280;35061;47.664;9.166;2022-12-18T14:10:35;102790.83;;;-1.37;80.54
18755;BME280;35061;47.664;9.166;2022-12-18T14:13:36;102794.98;;;-1.31;80.87
18755;BME280;35061;47.664;9.166;2022-12-18T14:16:06;102803.16;;;-1.25;80.68
18755;BME280;35061;47.664;9.166;2022-12-18T14:18:43;102797.80;;;-1.31;80.52
18755;BME280;35061;47.664;9.166;2022-12-18T14:21:21;102814.87;;;-1.39;81.12
18755;BME280;35061;47.664;9.166;2022-12-18T14:24:24;102806.07;;;-1.38;81.32
18755;BME280;35061;47.664;9.166;2022-12-18T14:26:51;102809.86;;;-1.30;81.31
18755;BME280;35061;47.664;9.166;2022-12-18T14:34:48;102815.23;;;-1.25;81.24
18755;BME280;35061;47.664;9.166;2022-12-18T14:37:21;102808.69;;;-1.29;80.93
18755;BME280;35061;47.664;9.166;2022-12-18T14:40:00;102814.41;;;-1.25;80.92
18755;BME280;35061;47.664;9.166;2022-12-18T14:42:36;102808.78;;;-1.25;80.92
18755;BME280;35061;47.664;9.166;2022-12-18T14:45:36;102812.25;;;-1.32;80.83
18755;BME280;35061;47.664;9.166;2022-12-18T14:51:00;102810.59;;;-1.33;81.25
18755;BME280;35061;47.664;9.166;2022-12-18T14:53:33;102818.20;;;-1.34;81.03
18755;BME280;35061;47.664;9.166;2022-12-18T14:56:03;102810.02;;;-1.39;81.29
18755;BME280;35061;47.664;9.166;2022-12-18T14:58:50;102816.93;;;-1.36;81.32
18755;BME280;35061;47.664;9.166;2022-12-18T15:01:38;102816.93;;;-1.36;81.23